createdAt,value
2017-12-25T00:00:31.326Z,2.52
2017-12-25T00:02:24.724Z,2.58
2017-12-25T00:03:24.708Z,2.55
2017-12-25T00:05:18.085Z,2.69
2017-12-25T00:06:18.086Z,2.64
2017-12-25T00:08:11.487Z,2.63
2017-12-25T00:09:11.466Z,2.76
2017-12-25T00:11:04.851Z,2.52
2017-12-25T00:12:04.847Z,2.56
2017-12-25T00:13:58.243Z,2.46
2017-12-25T00:14:58.226Z,2.44
2017-12-25T00:16:51.604Z,2.41
2017-12-25T00:17:51.604Z,2.37
2017-12-25T00:19:45.011Z,2.31
2017-12-25T00:20:44.994Z,2.26
2017-12-25T00:22:38.376Z,2.30
2017-12-25T00:23:38.375Z,2.20
2017-12-25T00:25:31.770Z,2.31
2017-12-25T00:26:31.757Z,2.31
2017-12-25T00:28:25.147Z,2.30
2017-12-25T00:29:25.129Z,2.23
2017-12-25T00:31:18.529Z,2.28
2017-12-25T00:32:18.512Z,2.30
2017-12-25T00:34:11.396Z,2.31
2017-12-25T00:35:11.396Z,2.33
2017-12-25T00:37:04.809Z,2.26
2017-12-25T00:38:04.777Z,2.20
2017-12-25T00:39:58.153Z,2.27
2017-12-25T00:40:58.155Z,2.31
2017-12-25T00:42:51.551Z,2.28
2017-12-25T00:43:51.532Z,2.30
2017-12-25T00:45:44.929Z,2.30
2017-12-25T00:46:44.912Z,2.27
2017-12-25T00:48:38.289Z,2.31
2017-12-25T00:49:38.291Z,2.33
2017-12-25T00:51:31.722Z,2.31
2017-12-25T00:52:31.669Z,2.28
2017-12-25T00:54:25.051Z,2.30
2017-12-25T00:55:25.051Z,2.34
2017-12-25T00:57:18.477Z,2.41
2017-12-25T00:58:18.432Z,2.44
2017-12-25T01:00:11.807Z,2.37
2017-12-25T01:01:11.808Z,2.37
2017-12-25T01:03:05.204Z,2.28
2017-12-25T01:04:05.191Z,2.44
2017-12-25T01:05:58.567Z,2.35
2017-12-25T01:06:58.565Z,2.40
2017-12-25T01:08:51.962Z,2.35
2017-12-25T01:09:51.950Z,2.31
2017-12-25T01:11:45.321Z,2.38
2017-12-25T01:12:45.324Z,2.44
2017-12-25T01:14:38.721Z,2.40
2017-12-25T01:15:38.704Z,2.37
2017-12-25T01:17:32.082Z,2.31
2017-12-25T01:18:32.087Z,2.37
2017-12-25T01:20:25.481Z,2.40
2017-12-25T01:21:25.463Z,2.52
2017-12-25T01:23:18.844Z,2.59
2017-12-25T01:24:18.846Z,2.51
2017-12-25T01:26:12.240Z,2.56
2017-12-25T01:27:12.220Z,2.61
2017-12-25T01:29:05.610Z,2.74
2017-12-25T01:30:05.611Z,2.63
2017-12-25T01:31:58.512Z,2.61
2017-12-25T01:32:58.496Z,2.61
2017-12-25T01:34:51.875Z,2.53
2017-12-25T01:35:51.875Z,2.64
2017-12-25T01:37:45.272Z,2.55
2017-12-25T01:38:45.254Z,2.52
2017-12-25T01:40:38.649Z,2.41
2017-12-25T01:41:38.632Z,2.37
2017-12-25T01:43:32.010Z,2.31
2017-12-25T01:44:32.010Z,2.23
2017-12-25T01:46:25.429Z,2.10
2017-12-25T01:47:25.390Z,2.10
2017-12-25T01:49:18.773Z,2.15
2017-12-25T01:50:18.774Z,2.13
2017-12-25T01:52:12.167Z,2.13
2017-12-25T01:53:12.156Z,2.12
2017-12-25T01:55:20.104Z,2.08
2017-12-25T01:56:05.531Z,2.08
2017-12-25T01:57:58.936Z,2.02
2017-12-25T01:58:58.923Z,1.98
2017-12-25T02:00:52.299Z,2.01
2017-12-25T02:01:52.301Z,1.91
2017-12-25T02:03:45.204Z,2.02
2017-12-25T02:04:45.180Z,1.90
2017-12-25T02:06:38.564Z,1.89
2017-12-25T02:07:38.566Z,1.87
2017-12-25T02:09:31.965Z,1.87
2017-12-25T02:10:31.946Z,1.91
2017-12-25T02:12:25.330Z,2.01
2017-12-25T02:13:25.321Z,2.13
2017-12-25T02:15:18.228Z,2.08
2017-12-25T02:16:18.206Z,2.04
2017-12-25T02:18:11.606Z,1.99
2017-12-25T02:19:11.596Z,1.90
2017-12-25T02:21:04.992Z,1.87
2017-12-25T02:22:04.976Z,1.78
2017-12-25T02:23:58.364Z,1.90
2017-12-25T02:24:58.352Z,1.85
2017-12-25T02:26:51.751Z,1.76
2017-12-25T02:27:51.730Z,1.79
2017-12-25T02:29:45.109Z,1.87
2017-12-25T02:30:45.110Z,1.80
2017-12-25T02:32:38.512Z,1.78
2017-12-25T02:33:38.496Z,1.72
2017-12-25T02:35:31.867Z,1.72
2017-12-25T02:36:31.866Z,1.75
2017-12-25T02:38:25.277Z,1.89
2017-12-25T02:39:25.257Z,1.94
2017-12-25T02:41:18.675Z,2.08
2017-12-25T02:42:18.636Z,2.04
2017-12-25T02:44:12.013Z,2.08
2017-12-25T02:45:12.013Z,2.10
2017-12-25T02:47:05.414Z,2.13
2017-12-25T02:48:05.392Z,2.13
2017-12-25T02:49:58.772Z,2.20
2017-12-25T02:50:58.777Z,2.15
2017-12-25T02:52:52.168Z,1.98
2017-12-25T02:53:52.149Z,1.90
2017-12-25T02:55:45.528Z,1.90
2017-12-25T02:56:45.530Z,1.83
2017-12-25T02:58:38.927Z,1.73
2017-12-25T02:59:38.907Z,1.75
2017-12-25T03:01:32.287Z,1.73
2017-12-25T03:02:32.286Z,1.82
2017-12-25T03:04:25.684Z,1.80
2017-12-25T03:05:25.664Z,1.72
2017-12-25T03:07:19.043Z,1.69
2017-12-25T03:08:19.043Z,1.82
2017-12-25T03:10:12.438Z,1.85
2017-12-25T03:11:12.418Z,1.89
2017-12-25T03:13:05.797Z,1.99
2017-12-25T03:14:05.797Z,1.90
2017-12-25T03:15:59.197Z,1.85
2017-12-25T03:16:59.174Z,1.90
2017-12-25T03:18:52.552Z,1.93
2017-12-25T03:19:52.556Z,1.90
2017-12-25T03:21:45.950Z,1.87
2017-12-25T03:22:45.931Z,1.82
2017-12-25T03:24:39.321Z,1.72
2017-12-25T03:25:39.322Z,1.82
2017-12-25T03:27:32.721Z,1.80
2017-12-25T03:28:32.708Z,1.72
2017-12-25T03:30:26.080Z,1.65
2017-12-25T03:31:26.080Z,1.65
2017-12-25T03:33:19.477Z,1.72
2017-12-25T03:34:19.456Z,1.71
2017-12-25T03:36:12.842Z,1.80
2017-12-25T03:37:12.836Z,1.76
2017-12-25T03:39:06.239Z,1.62
2017-12-25T03:40:06.215Z,1.62
2017-12-25T03:41:59.592Z,1.62
2017-12-25T03:42:59.604Z,1.62
2017-12-25T03:44:52.989Z,1.58
2017-12-25T03:45:52.969Z,1.58
2017-12-25T03:47:46.349Z,1.62
2017-12-25T03:48:46.347Z,1.68
2017-12-25T03:50:39.744Z,1.78
2017-12-25T03:51:39.727Z,1.75
2017-12-25T03:53:33.143Z,1.69
2017-12-25T03:54:33.204Z,1.80
2017-12-25T03:56:26.501Z,1.80
2017-12-25T03:57:26.483Z,1.91
2017-12-25T03:59:19.870Z,1.93
2017-12-25T04:00:19.867Z,1.94
2017-12-25T04:02:12.770Z,2.01
2017-12-25T04:03:12.750Z,2.01
2017-12-25T04:05:06.138Z,2.02
2017-12-25T04:06:06.136Z,2.09
2017-12-25T04:07:59.536Z,2.08
2017-12-25T04:08:59.513Z,2.13
2017-12-25T04:10:52.890Z,2.08
2017-12-25T04:11:52.893Z,2.10
2017-12-25T04:13:46.288Z,2.10
2017-12-25T04:14:46.271Z,2.10
2017-12-25T04:16:39.681Z,2.19
2017-12-25T04:17:39.660Z,2.15
2017-12-25T04:19:33.035Z,2.15
2017-12-25T04:20:33.038Z,2.15
2017-12-25T04:22:26.456Z,2.15
2017-12-25T04:23:26.414Z,2.16
2017-12-25T04:25:19.293Z,2.12
2017-12-25T04:26:19.296Z,2.12
2017-12-25T04:28:12.734Z,1.85
2017-12-25T04:29:12.674Z,1.91
2017-12-25T04:31:06.051Z,1.98
2017-12-25T04:32:06.053Z,1.87
2017-12-25T04:33:59.446Z,1.90
2017-12-25T04:34:59.429Z,1.87
2017-12-25T04:36:52.311Z,1.91
2017-12-25T04:37:52.310Z,2.01
2017-12-25T04:39:45.708Z,2.09
2017-12-25T04:40:45.690Z,2.09
2017-12-25T04:42:39.067Z,2.06
2017-12-25T04:43:39.069Z,2.09
2017-12-25T04:45:32.465Z,2.09
2017-12-25T04:46:32.444Z,2.12
2017-12-25T04:48:25.822Z,1.97
2017-12-25T04:49:25.820Z,1.85
2017-12-25T04:51:18.729Z,1.87
2017-12-25T04:52:18.764Z,2.01
2017-12-25T04:54:12.100Z,2.02
2017-12-25T04:55:12.099Z,2.02
2017-12-25T04:57:05.498Z,1.97
2017-12-25T04:58:05.476Z,1.89
2017-12-25T04:59:59.357Z,1.91
2017-12-25T05:00:59.355Z,1.80
2017-12-25T05:02:52.754Z,1.87
2017-12-25T05:03:52.733Z,1.87
2017-12-25T05:05:46.117Z,1.91
2017-12-25T05:06:46.110Z,1.85
2017-12-25T05:08:39.014Z,1.85
2017-12-25T05:09:38.994Z,1.85
2017-12-25T05:11:32.369Z,1.90
2017-12-25T05:12:32.368Z,1.89
2017-12-25T05:14:25.767Z,1.76
2017-12-25T05:15:25.805Z,1.80
2017-12-25T05:17:19.124Z,1.78
2017-12-25T05:18:19.125Z,1.76
2017-12-25T05:20:12.527Z,1.54
2017-12-25T05:21:12.504Z,1.64
2017-12-25T05:23:05.882Z,1.55
2017-12-25T05:24:05.882Z,1.58
2017-12-25T05:25:59.286Z,1.76
2017-12-25T05:26:59.271Z,1.68
2017-12-25T05:28:52.639Z,1.71
2017-12-25T05:29:52.640Z,1.80
2017-12-25T05:31:46.041Z,1.69
2017-12-25T05:32:46.021Z,1.75
2017-12-25T05:34:39.397Z,1.78
2017-12-25T05:35:39.395Z,1.80
2017-12-25T05:37:32.807Z,1.65
2017-12-25T05:38:32.787Z,1.60
2017-12-25T05:40:26.163Z,1.60
2017-12-25T05:41:26.169Z,1.51
2017-12-25T05:43:19.649Z,1.58
2017-12-25T05:44:19.542Z,1.65
2017-12-25T05:46:12.942Z,1.75
2017-12-25T05:47:12.920Z,1.71
2017-12-25T05:49:06.322Z,1.78
2017-12-25T05:50:06.295Z,1.69
2017-12-25T05:51:59.681Z,1.65
2017-12-25T05:52:59.675Z,1.65
2017-12-25T05:54:53.073Z,1.64
2017-12-25T05:55:53.054Z,1.68
2017-12-25T05:57:46.021Z,1.78
2017-12-25T05:58:45.937Z,1.75
2017-12-25T06:00:39.315Z,1.72
2017-12-25T06:01:39.325Z,1.76
2017-12-25T06:03:32.732Z,1.75
2017-12-25T06:04:32.694Z,1.62
2017-12-25T06:06:26.070Z,1.72
2017-12-25T06:07:26.072Z,1.79
2017-12-25T06:09:19.508Z,1.79
2017-12-25T06:10:19.449Z,1.78
2017-12-25T06:12:12.825Z,1.79
2017-12-25T06:13:12.826Z,1.75
2017-12-25T06:15:06.275Z,1.72
2017-12-25T06:16:06.257Z,1.61
2017-12-25T06:17:59.637Z,1.58
2017-12-25T06:18:59.635Z,1.62
2017-12-25T06:20:53.038Z,1.68
2017-12-25T06:21:53.017Z,1.75
2017-12-25T06:23:46.399Z,1.80
2017-12-25T06:24:46.395Z,1.68
2017-12-25T06:26:39.791Z,1.47
2017-12-25T06:27:39.773Z,1.52
2017-12-25T06:29:33.160Z,1.61
2017-12-25T06:30:33.151Z,1.62
2017-12-25T06:32:26.052Z,1.52
2017-12-25T06:33:26.031Z,1.52
2017-12-25T06:35:19.412Z,1.65
2017-12-25T06:36:19.409Z,1.71
2017-12-25T06:38:12.806Z,1.65
2017-12-25T06:39:12.786Z,1.82
2017-12-25T06:41:06.220Z,1.75
2017-12-25T06:42:06.167Z,1.76
2017-12-25T06:43:59.540Z,1.89
2017-12-25T06:44:59.544Z,1.91
2017-12-25T06:46:52.942Z,1.80
2017-12-25T06:47:52.925Z,1.78
2017-12-25T06:49:46.312Z,1.76
2017-12-25T06:50:46.310Z,1.62
2017-12-25T06:52:39.813Z,1.51
2017-12-25T06:53:39.701Z,1.52
2017-12-25T06:55:33.081Z,1.40
2017-12-25T06:56:33.083Z,1.37
2017-12-25T06:58:26.478Z,1.37
2017-12-25T06:59:26.456Z,1.28
2017-12-25T07:01:19.861Z,1.29
2017-12-25T07:02:19.861Z,1.36
2017-12-25T07:04:13.259Z,1.37
2017-12-25T07:05:13.240Z,1.33
2017-12-25T07:07:06.622Z,1.22
2017-12-25T07:08:06.624Z,1.19
2017-12-25T07:10:00.022Z,1.24
2017-12-25T07:11:00.006Z,1.22
2017-12-25T07:12:53.381Z,1.28
2017-12-25T07:13:53.379Z,1.37
2017-12-25T07:15:46.784Z,1.42
2017-12-25T07:16:46.763Z,1.29
2017-12-25T07:18:40.252Z,1.25
2017-12-25T07:19:40.158Z,1.34
2017-12-25T07:21:33.575Z,1.42
2017-12-25T07:22:33.543Z,1.51
2017-12-25T07:24:26.956Z,1.51
2017-12-25T07:25:26.925Z,1.50
2017-12-25T07:27:20.324Z,1.47
2017-12-25T07:28:20.302Z,1.58
2017-12-25T07:30:13.691Z,1.54
2017-12-25T07:31:13.696Z,1.54
2017-12-25T07:33:07.069Z,1.47
2017-12-25T07:34:07.049Z,1.60
2017-12-25T07:36:00.438Z,1.50
2017-12-25T07:37:00.430Z,1.60
2017-12-25T07:38:53.842Z,1.55
2017-12-25T07:39:53.820Z,1.62
2017-12-25T07:41:47.256Z,1.72
2017-12-25T07:42:47.187Z,1.57
2017-12-25T07:44:40.563Z,1.64
2017-12-25T07:45:40.564Z,1.80
2017-12-25T07:47:33.983Z,1.76
2017-12-25T07:48:33.941Z,1.76
2017-12-25T07:50:27.319Z,1.68
2017-12-25T07:51:27.325Z,1.78
2017-12-25T07:53:20.753Z,1.79
2017-12-25T07:54:20.717Z,1.65
2017-12-25T07:56:14.110Z,1.73
2017-12-25T07:57:14.099Z,1.72
2017-12-25T07:59:07.497Z,1.72
2017-12-25T08:00:07.477Z,1.65
2017-12-25T08:02:00.865Z,1.64
2017-12-25T08:03:00.865Z,1.60
2017-12-25T08:04:54.284Z,1.65
2017-12-25T08:05:54.261Z,1.57
2017-12-25T08:07:47.651Z,1.39
2017-12-25T08:08:47.650Z,1.47
2017-12-25T08:10:41.058Z,1.42
2017-12-25T08:11:41.079Z,1.44
2017-12-25T08:13:34.415Z,1.65
2017-12-25T08:14:34.405Z,1.52
2017-12-25T08:16:27.813Z,1.46
2017-12-25T08:17:27.788Z,1.54
2017-12-25T08:19:21.189Z,1.71
2017-12-25T08:20:21.584Z,1.64
2017-12-25T08:22:14.566Z,1.65
2017-12-25T08:23:14.547Z,1.76
2017-12-25T08:25:07.920Z,1.62
2017-12-25T08:26:07.973Z,1.62
2017-12-25T08:28:01.363Z,1.78
2017-12-25T08:29:01.301Z,1.73
2017-12-25T08:30:54.683Z,1.62
2017-12-25T08:31:54.710Z,1.51
2017-12-25T08:33:48.218Z,1.36
2017-12-25T08:34:48.243Z,1.37
2017-12-25T08:36:41.510Z,1.33
2017-12-25T08:37:41.520Z,1.55
2017-12-25T08:39:34.913Z,1.47
2017-12-25T08:40:34.884Z,1.62
2017-12-25T08:42:28.343Z,1.71
2017-12-25T08:43:28.598Z,1.80
2017-12-25T08:45:21.764Z,1.76
2017-12-25T08:46:21.773Z,1.78
2017-12-25T08:48:15.088Z,1.75
2017-12-25T08:49:15.071Z,1.64
2017-12-25T08:51:08.452Z,1.68
2017-12-25T08:52:08.567Z,1.76
2017-12-25T08:54:02.831Z,1.73
2017-12-25T08:55:02.855Z,1.83
2017-12-25T08:56:57.194Z,2.01
2017-12-25T08:57:57.258Z,2.10
2017-12-25T08:59:51.018Z,2.13
2017-12-25T09:00:50.759Z,2.01
2017-12-25T09:02:54.143Z,1.72
2017-12-25T09:03:45.214Z,1.80
2017-12-25T09:05:38.872Z,2.01
2017-12-25T09:06:46.297Z,2.08
2017-12-25T09:08:43.961Z,2.17
2017-12-25T09:09:43.932Z,2.27
2017-12-25T09:11:29.496Z,2.28
2017-12-25T09:12:36.879Z,2.20
2017-12-25T09:14:30.603Z,2.04
2017-12-25T09:15:22.899Z,2.10
2017-12-25T09:17:16.218Z,2.10
2017-12-25T09:18:16.238Z,2.17
2017-12-25T09:20:09.534Z,2.33
2017-12-25T09:21:09.731Z,2.31
2017-12-25T09:23:03.879Z,2.52
2017-12-25T09:24:03.796Z,2.64
2017-12-25T09:25:57.283Z,2.45
2017-12-25T09:26:58.812Z,2.31
2017-12-25T09:28:50.718Z,2.27
2017-12-25T09:29:50.558Z,2.23
2017-12-25T09:31:45.118Z,2.23
2017-12-25T09:32:45.172Z,2.22
2017-12-25T09:34:46.474Z,2.15
2017-12-25T09:35:38.389Z,2.13
2017-12-25T09:37:31.724Z,2.34
2017-12-25T09:38:31.718Z,2.31
2017-12-25T09:40:25.132Z,2.45
2017-12-25T09:41:25.100Z,2.44
2017-12-25T09:43:18.484Z,2.31
2017-12-25T09:44:18.479Z,2.19
2017-12-25T09:46:11.914Z,2.12
2017-12-25T09:47:11.871Z,2.15
2017-12-25T09:49:05.270Z,2.13
2017-12-25T09:50:05.242Z,2.04
2017-12-25T09:51:58.625Z,2.22
2017-12-25T09:52:58.626Z,2.30
2017-12-25T09:54:52.033Z,2.30
2017-12-25T09:55:52.021Z,2.27
2017-12-25T09:57:45.416Z,2.15
2017-12-25T09:58:45.389Z,2.20
2017-12-25T10:00:38.793Z,2.23
2017-12-25T10:01:38.773Z,2.16
2017-12-25T10:03:32.157Z,2.40
2017-12-25T10:04:32.154Z,2.45
2017-12-25T10:06:25.574Z,2.46
2017-12-25T10:07:25.538Z,2.58
2017-12-25T10:09:18.951Z,2.55
2017-12-25T10:10:18.924Z,2.58
2017-12-25T10:12:12.305Z,2.56
2017-12-25T10:13:12.306Z,2.58
2017-12-25T10:15:05.713Z,2.67
2017-12-25T10:16:05.692Z,2.77
2017-12-25T10:17:59.069Z,3.03
2017-12-25T10:18:59.072Z,3.12
2017-12-25T10:20:52.478Z,3.21
2017-12-25T10:21:52.456Z,3.31
2017-12-25T10:23:45.838Z,3.28
2017-12-25T10:24:45.838Z,3.43
2017-12-25T10:26:39.300Z,3.23
2017-12-25T10:27:39.231Z,3.28
2017-12-25T10:29:32.672Z,2.94
2017-12-25T10:30:32.616Z,3.07
2017-12-25T10:32:25.999Z,3.62
2017-12-25T10:33:26.001Z,3.79
2017-12-25T10:35:19.406Z,4.33
2017-12-25T10:36:19.384Z,4.40
2017-12-25T10:38:12.769Z,5.01
2017-12-25T10:39:12.774Z,4.99
2017-12-25T10:41:06.179Z,5.35
2017-12-25T10:42:06.158Z,5.46
2017-12-25T10:43:59.541Z,5.88
2017-12-25T10:44:59.557Z,5.96
2017-12-25T10:46:52.954Z,5.25
2017-12-25T10:47:52.932Z,5.89
2017-12-25T10:49:46.340Z,7.50
2017-12-25T10:50:46.321Z,7.29
2017-12-25T10:52:39.721Z,6.68
2017-12-25T10:53:39.706Z,6.26
2017-12-25T10:55:33.119Z,7.32
2017-12-25T10:56:33.101Z,7.66
2017-12-25T10:58:26.504Z,9.35
2017-12-25T10:59:26.500Z,8.84
2017-12-25T11:01:19.918Z,9.32
2017-12-25T11:02:19.901Z,9.23
2017-12-25T11:04:13.290Z,10.19
2017-12-25T11:05:13.299Z,10.59
2017-12-25T11:07:06.713Z,10.62
2017-12-25T11:08:06.694Z,10.63
2017-12-25T11:10:00.081Z,10.39
2017-12-25T11:11:00.089Z,11.01
2017-12-25T11:12:53.503Z,11.43
2017-12-25T11:13:53.484Z,11.54
2017-12-25T11:15:46.909Z,10.55
2017-12-25T11:16:46.880Z,9.97
2017-12-25T11:18:40.270Z,10.24
2017-12-25T11:19:40.278Z,9.39
2017-12-25T11:21:33.700Z,9.73
2017-12-25T11:22:33.682Z,9.61
2017-12-25T11:24:27.074Z,10.71
2017-12-25T11:25:27.080Z,10.71
2017-12-25T11:27:19.998Z,10.91
2017-12-25T11:28:19.987Z,10.65
2017-12-25T11:30:13.370Z,10.28
2017-12-25T11:31:13.376Z,10.09
2017-12-25T11:33:06.804Z,9.86
2017-12-25T11:34:06.787Z,10.15
2017-12-25T11:36:00.199Z,10.09
2017-12-25T11:37:00.184Z,10.12
2017-12-25T11:38:53.587Z,9.93
2017-12-25T11:39:53.594Z,10.09
2017-12-25T11:41:47.021Z,10.34
2017-12-25T11:42:47.000Z,10.30
2017-12-25T11:44:40.401Z,10.53
2017-12-25T11:45:40.390Z,10.36
2017-12-25T11:47:33.810Z,9.94
2017-12-25T11:48:33.792Z,9.82
2017-12-25T11:50:27.181Z,9.35
2017-12-25T11:51:27.190Z,8.88
2017-12-25T11:53:20.606Z,9.04
2017-12-25T11:54:20.585Z,8.90
2017-12-25T11:56:14.000Z,8.79
2017-12-25T11:57:13.982Z,9.20
2017-12-25T11:59:07.381Z,9.18
2017-12-25T12:00:07.380Z,8.84
2017-12-25T12:02:00.794Z,8.78
2017-12-25T12:03:00.777Z,8.60
2017-12-25T12:04:54.168Z,8.83
2017-12-25T12:05:54.175Z,8.68
2017-12-25T12:07:47.600Z,8.40
2017-12-25T12:08:47.579Z,8.65
2017-12-25T12:10:40.973Z,8.04
2017-12-25T12:11:40.984Z,7.56
2017-12-25T12:13:34.399Z,8.22
2017-12-25T12:14:34.376Z,8.14
2017-12-25T12:16:27.842Z,7.45
2017-12-25T12:17:27.778Z,7.44
2017-12-25T12:19:21.195Z,7.62
2017-12-25T12:20:21.175Z,7.44
2017-12-25T12:22:14.592Z,8.26
2017-12-25T12:23:14.571Z,8.21
2017-12-25T12:25:07.965Z,8.37
2017-12-25T12:26:07.970Z,8.50
2017-12-25T12:28:01.379Z,8.72
2017-12-25T12:29:01.371Z,8.08
2017-12-25T12:30:54.752Z,8.17
2017-12-25T12:31:54.756Z,8.14
2017-12-25T12:33:48.170Z,7.89
2017-12-25T12:34:48.158Z,7.93
2017-12-25T12:36:41.574Z,7.60
2017-12-25T12:37:41.544Z,7.94
2017-12-25T12:39:34.942Z,7.90
2017-12-25T12:40:34.944Z,7.52
2017-12-25T12:42:28.352Z,7.29
2017-12-25T12:43:28.334Z,7.09
2017-12-25T12:45:21.723Z,7.19
2017-12-25T12:46:21.726Z,7.01
2017-12-25T12:48:15.139Z,6.50
2017-12-25T12:49:15.122Z,6.33
2017-12-25T12:51:08.516Z,6.22
2017-12-25T12:52:08.515Z,6.28
2017-12-25T12:54:01.925Z,6.06
2017-12-25T12:55:01.904Z,6.21
2017-12-25T12:56:55.298Z,6.09
2017-12-25T12:57:55.297Z,6.19
2017-12-25T12:59:48.717Z,6.22
2017-12-25T13:00:48.697Z,6.07
2017-12-25T13:02:42.114Z,6.04
2017-12-25T13:03:42.087Z,6.01
2017-12-25T13:05:35.477Z,6.10
2017-12-25T13:06:35.480Z,6.09
2017-12-25T13:08:28.889Z,6.00
2017-12-25T13:09:28.868Z,5.93
2017-12-25T13:11:22.266Z,5.91
2017-12-25T13:12:22.267Z,5.89
2017-12-25T13:14:15.682Z,5.91
2017-12-25T13:15:15.658Z,5.93
2017-12-25T13:17:09.046Z,5.88
2017-12-25T13:18:09.046Z,5.95
2017-12-25T13:20:02.460Z,5.88
2017-12-25T13:21:02.445Z,5.85
2017-12-25T13:22:55.849Z,5.85
2017-12-25T13:23:55.824Z,5.81
2017-12-25T13:25:49.224Z,5.83
2017-12-25T13:26:49.215Z,5.88
2017-12-25T13:28:42.654Z,5.96
2017-12-25T13:29:42.608Z,6.00
2017-12-25T13:31:35.997Z,5.98
2017-12-25T13:32:35.989Z,6.00
2017-12-25T13:34:29.406Z,5.89
2017-12-25T13:35:29.379Z,5.85
2017-12-25T13:37:22.765Z,5.85
2017-12-25T13:38:22.770Z,5.88
2017-12-25T13:40:16.174Z,5.88
2017-12-25T13:41:16.165Z,5.70
2017-12-25T13:43:09.565Z,5.70
2017-12-25T13:44:09.542Z,5.73
2017-12-25T13:46:02.929Z,5.74
2017-12-25T13:47:02.931Z,5.68
2017-12-25T13:48:56.351Z,5.55
2017-12-25T13:49:56.317Z,5.46
2017-12-25T13:51:49.707Z,5.55
2017-12-25T13:52:49.714Z,5.48
2017-12-25T13:54:43.128Z,5.64
2017-12-25T13:55:43.097Z,5.57
2017-12-25T13:57:36.488Z,5.52
2017-12-25T13:58:36.481Z,5.38
2017-12-25T14:00:29.891Z,5.38
2017-12-25T14:01:29.872Z,5.37
2017-12-25T14:03:23.254Z,5.20
2017-12-25T14:04:23.256Z,5.23
2017-12-25T14:06:16.668Z,5.23
2017-12-25T14:07:16.645Z,5.30
2017-12-25T14:09:10.053Z,5.37
2017-12-25T14:10:10.036Z,5.25
2017-12-25T14:12:03.429Z,5.35
2017-12-25T14:13:03.435Z,5.31
2017-12-25T14:14:56.856Z,5.32
2017-12-25T14:15:56.823Z,5.23
2017-12-25T14:17:50.261Z,5.28
2017-12-25T14:18:50.257Z,5.19
2017-12-25T14:20:43.663Z,5.27
2017-12-25T14:21:43.646Z,5.28
2017-12-25T14:23:37.027Z,5.16
2017-12-25T14:24:37.034Z,5.17
2017-12-25T14:26:32.443Z,5.14
2017-12-25T14:27:32.429Z,5.02
2017-12-25T14:29:25.831Z,4.89
2017-12-25T14:30:25.804Z,5.05
2017-12-25T14:32:19.193Z,4.95
2017-12-25T14:33:19.196Z,4.96
2017-12-25T14:35:13.600Z,5.10
2017-12-25T14:36:13.575Z,5.02
2017-12-25T14:38:07.964Z,5.14
2017-12-25T14:39:07.984Z,5.13
2017-12-25T14:41:01.374Z,5.13
2017-12-25T14:42:01.365Z,5.09
2017-12-25T14:43:54.737Z,4.99
2017-12-25T14:44:54.741Z,4.98
2017-12-25T14:46:48.147Z,4.89
2017-12-25T14:47:48.128Z,4.99
2017-12-25T14:49:41.536Z,4.80
2017-12-25T14:50:41.515Z,4.69
2017-12-25T14:52:34.899Z,4.61
2017-12-25T14:53:34.900Z,4.67
2017-12-25T14:55:28.310Z,4.62
2017-12-25T14:56:28.297Z,4.40
2017-12-25T14:58:21.687Z,4.44
2017-12-25T14:59:21.687Z,4.42
2017-12-25T15:01:15.099Z,4.37
2017-12-25T15:02:15.120Z,4.50
2017-12-25T15:04:08.463Z,4.55
2017-12-25T15:05:08.474Z,4.47
2017-12-25T15:07:01.879Z,4.61
2017-12-25T15:08:01.854Z,4.50
2017-12-25T15:09:55.266Z,4.44
2017-12-25T15:10:55.242Z,4.46
2017-12-25T15:12:48.623Z,4.34
2017-12-25T15:13:48.621Z,4.26
2017-12-25T15:15:42.032Z,4.36
2017-12-25T15:16:42.011Z,4.24
2017-12-25T15:18:35.390Z,4.22
2017-12-25T15:19:35.394Z,4.19
2017-12-25T15:21:28.805Z,4.07
2017-12-25T15:22:28.781Z,4.08
2017-12-25T15:24:22.159Z,4.01
2017-12-25T15:25:22.169Z,3.97
2017-12-25T15:27:15.571Z,3.78
2017-12-25T15:28:15.546Z,3.70
2017-12-25T15:30:08.955Z,3.60
2017-12-25T15:31:08.932Z,3.67
2017-12-25T15:33:02.344Z,3.64
2017-12-25T15:34:02.346Z,3.58
2017-12-25T15:35:55.755Z,3.61
2017-12-25T15:36:55.735Z,3.64
2017-12-25T15:38:49.114Z,3.54
2017-12-25T15:39:49.116Z,3.54
2017-12-25T15:41:42.524Z,3.62
2017-12-25T15:42:42.496Z,3.68
2017-12-25T15:44:35.890Z,3.52
2017-12-25T15:45:35.880Z,3.54
2017-12-25T15:47:29.289Z,3.44
2017-12-25T15:48:29.268Z,3.44
2017-12-25T15:50:22.654Z,3.61
2017-12-25T15:51:22.660Z,3.39
2017-12-25T15:53:16.061Z,3.30
2017-12-25T15:54:16.038Z,3.28
2017-12-25T15:56:09.445Z,3.34
2017-12-25T15:57:09.422Z,3.31
2017-12-25T15:59:02.829Z,3.21
2017-12-25T16:00:02.806Z,3.12
2017-12-25T16:01:56.215Z,3.25
2017-12-25T16:02:56.197Z,3.28
2017-12-25T16:04:49.572Z,3.31
2017-12-25T16:05:49.573Z,3.16
2017-12-25T16:07:42.981Z,3.27
2017-12-25T16:08:42.958Z,3.20
2017-12-25T16:10:36.343Z,3.23
2017-12-25T16:11:36.336Z,3.18
2017-12-25T16:13:29.743Z,3.09
2017-12-25T16:14:29.722Z,3.09
2017-12-25T16:16:23.134Z,3.07
2017-12-25T16:17:23.118Z,3.00
2017-12-25T16:19:16.488Z,2.97
2017-12-25T16:20:16.491Z,2.92
2017-12-25T16:22:09.896Z,2.88
2017-12-25T16:23:09.872Z,2.88
2017-12-25T16:25:03.254Z,2.88
2017-12-25T16:26:03.261Z,2.74
2017-12-25T16:27:56.676Z,2.64
2017-12-25T16:28:56.646Z,2.45
2017-12-25T16:30:50.028Z,2.44
2017-12-25T16:31:50.075Z,2.41
2017-12-25T16:33:43.437Z,2.44
2017-12-25T16:34:43.411Z,2.48
2017-12-25T16:36:36.816Z,2.44
2017-12-25T16:37:36.802Z,2.45
2017-12-25T16:39:30.176Z,2.51
2017-12-25T16:40:30.177Z,2.53
2017-12-25T16:42:23.580Z,2.41
2017-12-25T16:43:23.563Z,2.44
2017-12-25T16:45:16.950Z,2.38
2017-12-25T16:46:16.944Z,2.20
2017-12-25T16:48:10.346Z,2.17
2017-12-25T16:49:10.326Z,2.19
2017-12-25T16:51:03.712Z,2.28
2017-12-25T16:52:03.712Z,2.33
2017-12-25T16:53:57.112Z,2.31
2017-12-25T16:54:57.088Z,2.40
2017-12-25T16:56:50.505Z,2.30
2017-12-25T16:57:50.478Z,2.40
2017-12-25T16:59:43.864Z,2.16
2017-12-25T17:00:43.856Z,2.22
2017-12-25T17:02:37.267Z,2.20
2017-12-25T17:03:37.240Z,2.16
2017-12-25T17:05:30.621Z,2.12
2017-12-25T17:06:30.622Z,2.22
2017-12-25T17:08:24.034Z,2.12
2017-12-25T17:09:24.011Z,2.06
2017-12-25T17:11:17.394Z,2.15
2017-12-25T17:12:17.394Z,2.08
2017-12-25T17:14:10.799Z,1.85
2017-12-25T17:15:10.775Z,1.83
2017-12-25T17:17:04.180Z,1.64
2017-12-25T17:18:04.158Z,1.65
2017-12-25T17:19:57.561Z,1.40
2017-12-25T17:20:57.539Z,1.33
2017-12-25T17:22:50.940Z,1.34
2017-12-25T17:23:50.919Z,1.40
2017-12-25T17:25:44.322Z,1.22
2017-12-25T17:26:44.321Z,1.36
2017-12-25T17:28:37.726Z,1.39
2017-12-25T17:29:37.703Z,1.39
2017-12-25T17:31:31.095Z,1.47
2017-12-25T17:32:31.082Z,1.54
2017-12-25T17:34:24.487Z,1.64
2017-12-25T17:35:24.464Z,1.68
2017-12-25T17:37:17.855Z,1.75
2017-12-25T17:38:17.844Z,1.72
2017-12-25T17:40:11.258Z,1.68
2017-12-25T17:41:11.234Z,1.72
2017-12-25T17:43:04.639Z,1.75
2017-12-25T17:44:04.616Z,1.62
2017-12-25T17:45:57.996Z,1.62
2017-12-25T17:46:57.997Z,1.68
2017-12-25T17:48:51.400Z,1.78
2017-12-25T17:49:51.378Z,1.54
2017-12-25T17:51:44.757Z,1.51
2017-12-25T17:52:44.760Z,1.50
2017-12-25T17:54:38.172Z,1.40
2017-12-25T17:55:38.139Z,1.46
2017-12-25T17:57:31.520Z,1.44
2017-12-25T17:58:31.521Z,1.32
2017-12-25T18:00:24.925Z,1.29
2017-12-25T18:01:24.900Z,1.22
2017-12-25T18:03:18.304Z,1.28
2017-12-25T18:04:18.283Z,1.21
2017-12-25T18:06:11.665Z,1.16
2017-12-25T18:07:11.661Z,1.18
2017-12-25T18:09:05.065Z,1.06
2017-12-25T18:10:05.045Z,0.97
2017-12-25T18:11:58.423Z,0.85
2017-12-25T18:12:58.426Z,0.89
2017-12-25T18:14:51.824Z,0.83
2017-12-25T18:15:51.802Z,0.86
2017-12-25T18:17:45.197Z,0.98
2017-12-25T18:18:45.183Z,1.04
2017-12-25T18:20:38.596Z,0.98
2017-12-25T18:21:38.568Z,1.04
2017-12-25T18:23:31.964Z,1.24
2017-12-25T18:24:31.943Z,1.21
2017-12-25T18:26:25.322Z,1.08
2017-12-25T18:27:25.322Z,1.15
2017-12-25T18:29:18.727Z,1.18
2017-12-25T18:30:18.704Z,0.89
2017-12-25T18:32:12.090Z,0.82
2017-12-25T18:33:12.084Z,0.92
2017-12-25T18:35:05.486Z,0.97
2017-12-25T18:36:05.463Z,0.83
2017-12-25T18:37:58.855Z,0.82
2017-12-25T18:38:58.851Z,0.82
2017-12-25T18:40:52.256Z,0.78
2017-12-25T18:41:52.229Z,0.82
2017-12-25T18:43:45.639Z,0.72
2017-12-25T18:44:45.614Z,0.86
2017-12-25T18:46:39.011Z,0.82
2017-12-25T18:47:38.993Z,0.85
2017-12-25T18:49:32.403Z,0.83
2017-12-25T18:50:32.370Z,0.78
2017-12-25T18:52:25.750Z,0.76
2017-12-25T18:53:25.750Z,0.70
2017-12-25T18:55:19.160Z,0.83
2017-12-25T18:56:19.135Z,0.86
2017-12-25T18:58:12.512Z,1.04
2017-12-25T18:59:12.524Z,0.86
2017-12-25T19:01:05.938Z,1.01
2017-12-25T19:02:05.889Z,1.08
2017-12-25T19:03:59.298Z,1.15
2017-12-25T19:04:59.271Z,1.21
2017-12-25T19:06:52.656Z,1.26
2017-12-25T19:07:52.651Z,1.26
2017-12-25T19:09:46.052Z,1.32
2017-12-25T19:10:46.033Z,1.29
2017-12-25T19:12:39.411Z,1.39